Latest Weather Observations for Century Mine

IDQ60801

Issued at 11:42 pm EST Sunday 25 October 2020 (issued every 10 minutes, with the page automatically refreshed every 10 minutes)

About weather observations | Map of weather stations | Latest weather observations for QLD | Other Formats
Station Details ID: 029167 Name: CENTURY MINE Lat: -18.76 Lon: 138.71 Height: 126.8 m
Data from the previous 72 hours. | See also: Recent months at Century Mine
Date/Time
EST
Temp
°C
App
Temp
°C
Dew
Point
°C
Rel
Hum
%
Delta-T
°C
Wind Press
QNH
hPa
Press
MSL
hPa
Rain since
9am
mm
Dir  Spd
km/h
Gust
km/h
Spd
kts
Gust
kts
25/11:30pm 25.2 26.0 18.2 65 4.4 WNW 11 15 6 8 1011.9 1011.0 0.0
25/11:00pm 25.8 26.4 17.7 61 5.1 NNW 11 15 6 8 1012.0 1011.1 0.0
25/10:30pm 25.7 27.1 17.4 60 5.2 NNW 6 9 3 5 1012.3 1011.4 0.0
25/10:00pm 25.8 27.5 18.5 64 4.7 SW 7 11 4 6 1012.4 1011.5 0.0
25/09:30pm 25.9 26.8 18.3 63 4.8 NW 11 15 6 8 1011.8 1010.9 0.0
25/09:00pm 25.9 25.0 17.8 61 5.1 N 19 26 10 14 1011.3 1010.5 0.0
25/08:30pm 28.0 26.3 18.1 55 6.3 N 24 33 13 18 1010.1 1009.3 0.0
25/08:00pm 30.7 32.0 18.4 47 8.0 ENE 9 13 5 7 1009.2 1008.4 0.0
25/07:30pm 31.3 32.7 17.9 44 8.6 E 7 9 4 5 1008.6 1007.8 0.0
25/07:00pm 31.9 32.8 16.2 38 9.9 ENE 6 13 3 7 1008.3 1007.5 0.0
25/06:30pm 32.9 35.2 16.7 38 10.3 CALM 0 0 0 0 1008.1 1007.2 0.0
25/06:00pm 34.4 35.6 14.8 30 12.2 NNW 2 7 1 4 1007.9 1007.0 0.0
25/05:30pm 34.1 34.6 14.1 30 12.3 NW 4 9 2 5 1007.8 1006.9 0.0
25/05:00pm 34.2 35.1 14.1 29 12.4 N 2 9 1 5 1007.5 1006.6 0.0
25/04:30pm 34.5 35.7 14.9 31 12.2 W 2 7 1 4 1007.4 1006.5 0.0
25/04:00pm 33.5 33.8 15.0 32 11.5 NE 7 15 4 8 1007.7 1006.8 0.0
25/03:30pm 33.8 34.5 15.7 33 11.4 NW 6 13 3 7 1008.4 1007.6 0.0
25/03:00pm 33.2 33.4 14.8 33 11.4 SE 7 11 4 6 1009.0 1008.2 0.0
25/02:30pm 33.7 34.4 15.7 34 11.3 WNW 6 11 3 6 1009.5 1008.7 0.0
25/02:00pm 33.2 33.8 15.7 35 11.0 WNW 7 13 4 7 1010.1 1009.3 0.0
25/01:30pm 32.8 33.2 16.2 37 10.5 WSW 9 13 5 7 1010.5 1009.7 0.0
25/01:00pm 32.9 34.0 17.1 39 10.1 ENE 7 15 4 8 1010.9 1010.1 0.0
25/12:30pm 31.6 31.8 16.7 40 9.4 SSE 11 17 6 9 1011.4 1010.6 0.0
25/12:00pm 31.4 32.3 16.6 41 9.4 WSW 7 19 4 10 1012.0 1011.1 0.0
25/11:30am 31.1 32.2 18.1 46 8.4 SW 9 15 5 8 1012.5 1011.6 0.0
25/11:00am 30.3 31.7 17.4 46 8.2 SW 6 13 3 7 1013.0 1012.1 0.0
25/10:30am 29.5 30.1 16.7 46 8.1 SW 9 17 5 9 1013.3 1012.4 0.0
25/10:00am 29.0 29.5 18.4 52 6.8 S 13 20 7 11 1013.4 1012.5 0.0
25/09:30am 28.9 29.5 18.7 54 6.6 S 13 19 7 10 1013.5 1012.6 0.0
25/09:00am 27.9 - 17.7 53 6.5 - - - - - 1013.3 1012.4 -
 
Date/Time
EST
Temp
°C
App
Temp
°C
Dew
Point
°C
Rel
Hum
%
Delta-T
°C
Wind Press
QNH
hPa
Press
MSL
hPa
Rain since
9am
mm
Dir  Spd
km/h
Gust
km/h
Spd
kts
Gust
kts
24/08:00pm 23.3 23.8 19.2 78 2.6 NNW 15 20 8 11 1011.2 1010.4 32.6
24/07:30pm 23.5 24.2 18.8 75 3.0 NNE 13 24 7 13 1010.1 1009.3 32.6
24/07:00pm 22.9 22.8 19.5 81 2.2 NE 19 26 10 14 1008.9 1008.1 32.6
24/06:30pm 23.2 24.4 19.8 81 2.2 NE 13 17 7 9 1009.1 1008.3 32.6
24/06:00pm 22.3 23.7 19.5 84 1.8 NE 11 26 6 14 1008.3 1007.5 32.6
24/05:49pm 21.7 20.8 19.1 85 1.7 NE 22 35 12 19 1007.4 1006.5 32.6
24/05:30pm 21.8 21.3 19.0 84 1.8 NNE 20 35 11 19 1009.4 1008.6 31.8
24/05:00pm 22.0 20.6 18.8 82 2.0 ENE 24 35 13 19 1007.6 1006.7 31.4
24/04:30pm 22.0 22.7 18.8 82 2.0 NW 13 28 7 15 1005.8 1004.9 31.4
24/04:24pm 21.7 20.5 18.5 82 2.0 NW 22 37 12 20 1005.8 1004.9 31.4
24/04:03pm 21.5 18.0 17.5 78 2.5 W 32 83 17 45 1007.8 1006.9 26.0
24/04:00pm 21.7 17.1 17.9 79 2.4 WSW 39 83 21 45 1007.3 1006.4 24.2
24/03:58pm 21.2 14.9 17.0 77 2.6 WSW 46 83 25 45 1008.0 1007.1 22.4
24/03:54pm 19.6 11.5 15.5 77 2.4 WSW 52 83 28 45 1008.2 1007.3 18.8
24/03:45pm 22.3 18.7 18.5 79 2.4 SSW 35 65 19 35 1007.6 1006.7 9.2
24/03:32pm 22.7 17.5 16.5 68 3.8 SSE 39 82 21 44 1006.8 1005.9 3.2
24/03:30pm 24.2 18.6 15.4 58 5.3 SSE 39 82 21 44 1006.4 1005.5 2.0
24/03:29pm 24.5 19.4 14.9 55 5.8 SE 35 70 19 38 1006.2 1005.3 1.6
24/03:24pm 27.7 23.8 14.3 43 8.1 SE 28 52 15 28 1006.2 1005.3 0.0
24/03:23pm 28.1 24.7 14.7 44 8.1 SE 26 50 14 27 1006.2 1005.3 0.0
24/03:00pm 33.4 33.1 19.5 44 9.2 NE 20 32 11 17 1006.3 1005.4 0.0
24/02:30pm 33.7 31.8 19.4 43 9.5 NNE 28 39 15 21 1007.0 1006.1 0.0
24/02:21pm 34.0 33.1 18.1 39 10.4 NNW 20 41 11 22 1007.1 1006.2 0.0
24/02:00pm 35.8 36.3 17.5 34 11.9 N 11 20 6 11 1007.3 1006.4 0.0
24/01:30pm 35.2 35.3 17.4 34 11.5 NW 13 20 7 11 1007.9 1007.0 0.0
24/01:00pm 34.0 34.2 19.3 42 9.7 NNW 17 24 9 13 1008.5 1007.7 0.0
24/12:30pm 33.7 33.7 19.0 42 9.7 NNW 17 24 9 13 1009.2 1008.4 0.0
24/12:00pm 33.2 33.0 19.3 44 9.2 NW 19 28 10 15 1009.4 1008.6 0.0
24/11:30am 32.8 32.8 19.7 46 8.7 NNW 19 28 10 15 1009.6 1008.8 0.0
24/11:00am 31.6 32.4 19.9 50 7.8 N 15 24 8 13 1010.1 1009.3 0.0
24/10:30am 31.1 31.6 20.1 52 7.3 NNW 17 24 9 13 1010.4 1009.6 0.0
24/10:00am 30.8 31.2 20.7 55 6.8 NNW 19 26 10 14 1011.0 1010.2 0.0
24/09:30am 30.3 30.8 20.8 56 6.4 N 19 24 10 13 1011.5 1010.7 0.0
24/09:00am 28.8 29.9 20.5 61 5.5 NNE 15 24 8 13 1011.4 1010.6 0.0
24/08:30am 28.0 28.8 20.6 64 4.9 NNE 17 24 9 13 1011.5 1010.7 0.0
24/08:00am 26.9 27.7 19.0 62 5.1 NNE 13 19 7 10 1011.5 1010.7 0.0
24/07:30am 25.7 27.0 18.4 64 4.7 NE 9 17 5 9 1011.1 1010.3 0.0
24/07:00am 23.7 27.3 19.8 79 2.5 CALM 0 0 0 0 1010.9 1010.1 0.0
24/06:30am 22.5 26.0 19.5 83 1.9 CALM 0 0 0 0 1010.6 1009.8 0.0
24/06:00am 22.5 25.5 19.3 82 2.0 NNW 2 6 1 3 1010.1 1009.3 0.0
24/05:30am 22.4 24.3 19.0 81 2.2 WSW 7 7 4 4 1009.5 1008.7 0.0
24/05:00am 22.7 24.7 18.7 78 2.5 E 6 7 3 4 1008.9 1008.1 0.0
24/04:30am 22.9 24.9 18.7 77 2.7 ESE 6 7 3 4 1008.7 1007.9 0.0
24/04:00am 23.1 25.1 18.8 77 2.7 ESE 6 9 3 5 1008.6 1007.8 0.0
24/03:30am 23.3 25.0 18.4 74 3.1 N 7 9 4 5 1007.9 1007.0 0.0
24/03:00am 23.3 24.6 18.4 74 3.1 N 9 13 5 7 1007.8 1006.9 0.0
24/02:30am 23.4 24.7 18.5 74 3.1 N 9 15 5 8 1007.8 1006.9 0.0
24/02:00am 23.3 25.2 18.6 75 3.0 NE 6 7 3 4 1007.8 1006.9 0.0
24/01:30am 23.5 25.4 18.6 74 3.1 NNE 6 9 3 5 1008.1 1007.2 0.0
24/01:00am 23.5 25.5 18.8 75 3.0 ENE 6 7 3 4 1008.4 1007.6 0.0
24/12:30am 23.2 26.2 19.2 78 2.6 NNE 2 7 1 4 1008.8 1008.0 0.0
24/12:00am 22.5 24.3 18.7 79 2.4 ESE 7 11 4 6 1009.0 1008.2 0.0
 
Date/Time
EST
Temp
°C
App
Temp
°C
Dew
Point
°C
Rel
Hum
%
Delta-T
°C
Wind Press
QNH
hPa
Press
MSL
hPa
Rain since
9am
mm
Dir  Spd
km/h
Gust
km/h
Spd
kts
Gust
kts
23/11:30pm 22.5 22.7 18.5 78 2.5 SE 15 22 8 12 1009.8 1009.0 0.0
23/11:00pm 23.0 22.2 19.2 79 2.4 ESE 22 33 12 18 1009.6 1008.8 0.0
23/10:43pm 23.4 21.6 18.7 75 3.0 S 26 41 14 22 1011.1 1010.3 0.0
23/10:30pm 26.3 21.8 17.4 58 5.6 SSW 37 61 20 33 1011.4 1010.6 0.0
23/10:21pm 27.7 24.6 17.5 53 6.5 SW 30 61 16 33 1011.9 1011.0 0.0
23/10:16pm 27.8 27.4 18.8 58 5.8 SSW 19 43 10 23 1011.2 1010.4 0.0
23/10:00pm 26.4 28.1 18.0 60 5.3 W 6 9 3 5 1009.2 1008.4 0.0
23/09:30pm 26.9 27.2 17.9 57 5.7 NW 13 20 7 11 1009.0 1008.2 0.0
23/09:00pm 26.7 27.3 18.6 61 5.2 NW 13 19 7 10 1008.8 1008.0 0.0
23/08:30pm 26.4 27.8 19.5 66 4.5 NW 11 17 6 9 1008.5 1007.7 0.0
23/08:00pm 26.9 24.5 18.2 59 5.6 NNW 28 41 15 22 1008.4 1007.6 0.0
23/07:30pm 29.9 28.9 18.0 48 7.6 N 20 26 11 14 1007.9 1007.0 0.0
23/07:00pm 30.6 29.9 17.3 45 8.5 NNW 17 22 9 12 1007.0 1006.1 0.0
23/06:30pm 30.0 30.0 18.1 49 7.7 NNE 15 22 8 12 1005.8 1004.9 0.0
23/06:00pm 31.0 29.3 17.3 43 8.8 NNE 22 32 12 17 1005.9 1005.0 0.0
23/05:30pm 32.7 31.4 17.3 39 9.9 NNE 20 30 11 16 1005.6 1004.7 0.0
23/05:00pm 34.1 30.4 16.0 34 11.5 N 30 39 16 21 1005.2 1004.3 0.0
23/04:30pm 36.6 33.4 11.4 22 15.1 NNW 19 28 10 15 1005.2 1004.3 0.0
23/04:00pm 36.7 33.8 12.2 23 14.8 NW 19 26 10 14 1005.8 1004.9 0.0
23/03:30pm 35.7 35.0 13.2 26 13.7 NW 9 15 5 8 1006.3 1005.4 0.0
23/03:00pm 35.4 34.3 13.0 26 13.7 NNW 11 19 6 10 1006.6 1005.7 0.0
23/02:30pm 34.6 34.0 12.3 26 13.4 WNW 7 19 4 10 1007.1 1006.2 0.0
23/02:00pm 34.2 33.5 13.1 28 12.8 NW 9 15 5 8 1007.9 1007.0 0.0
23/01:30pm 33.3 32.8 13.9 31 11.9 WNW 9 13 5 7 1008.8 1008.0 0.0
23/01:00pm 33.4 31.3 13.5 30 12.1 NNW 17 20 9 11 1009.0 1008.2 0.0
23/12:30pm 33.9 33.0 14.9 32 11.8 N 13 19 7 10 1009.2 1008.4 0.0
23/12:00pm 32.4 30.2 14.5 33 11.0 N 19 26 10 14 1009.7 1008.9 0.0
23/11:30am 32.0 30.2 15.5 37 10.3 N 19 26 10 14 1010.2 1009.4 0.0
23/11:00am 30.8 30.1 16.4 42 9.1 N 15 20 8 11 1010.8 1010.0 0.0
23/10:30am 30.0 29.8 17.5 47 8.0 NNE 15 24 8 13 1011.2 1010.4 0.0
23/10:00am 28.2 27.5 17.4 52 6.8 N 17 20 9 11 1011.3 1010.5 0.0
23/09:30am 27.8 27.7 17.9 54 6.3 N 15 20 8 11 1011.5 1010.7 0.0
23/09:00am 27.0 27.2 18.6 60 5.4 N 15 19 8 10 1011.3 1010.5 24.0
23/08:30am 26.5 27.7 19.1 64 4.8 N 11 17 6 9 1011.3 1010.5 24.0
23/08:00am 26.1 27.3 18.2 61 5.0 N 9 13 5 7 1010.9 1010.1 24.0
23/07:30am 25.9 26.8 17.5 59 5.3 NNE 9 13 5 7 1009.9 1009.1 24.0
23/07:00am 25.5 26.4 18.4 65 4.5 NNE 11 20 6 11 1010.2 1009.4 24.0
23/06:30am 25.1 24.9 17.6 63 4.7 SW 15 32 8 17 1009.4 1008.6 24.0
23/06:00am 24.9 26.5 17.9 65 4.4 ESE 6 13 3 7 1009.2 1008.4 24.0
23/05:30am 25.1 26.3 17.3 62 4.9 SE 7 13 4 7 1009.6 1008.8 24.0
23/05:00am 25.6 27.5 16.7 58 5.5 S 2 9 1 5 1009.4 1008.6 24.0
23/04:30am 26.2 26.5 15.9 53 6.3 W 9 15 5 8 1009.1 1008.3 24.0
23/04:00am 26.0 26.1 17.4 59 5.4 WSW 13 22 7 12 1008.9 1008.1 24.0
23/03:30am 26.3 26.4 17.4 58 5.6 SSW 13 24 7 13 1007.8 1006.9 23.8
23/03:00am 26.1 25.3 17.2 58 5.6 WSW 17 26 9 14 1008.2 1007.3 23.8
23/02:30am 27.3 27.6 16.9 53 6.5 W 11 19 6 10 1008.8 1008.0 23.8
23/02:00am 27.3 27.4 17.5 55 6.2 WSW 13 20 7 11 1008.9 1008.1 23.8
23/01:30am 27.2 27.1 17.9 56 5.9 WSW 15 24 8 13 1009.2 1008.4 23.8
23/01:00am 27.3 27.2 17.8 56 6.0 WSW 15 28 8 15 1009.5 1008.7 23.8
23/12:30am 28.0 27.8 16.6 50 7.1 WSW 13 22 7 12 1010.0 1009.2 23.8
23/12:00am 28.4 26.5 16.7 49 7.3 W 22 37 12 20 1010.2 1009.4 23.6

Other formats

Comma delimited format used in spreadsheet applications
http://www.bom.gov.au/fwo/IDQ60801/IDQ60801.94261.axf

JavaScript Object Notation format (JSON) in row-major order
http://www.bom.gov.au/fwo/IDQ60801/IDQ60801.94261.json

Data quality

Most of these data are generated automatically and are frequently updated. Quality checks on data are not normally performed. It is possible for incorrect values to appear. Refer to information at About Latest Weather Observations and please check the disclaimer before using these data.